Time;durP1;ratioP1;P1;durP2;ratioP2;P2;SDS_P1;SDS_P2;PMS_P1;PMS_P2;Temp;Humidity;BMP_temperature;BMP_pressure;BME280_temperature;BME280_humidity;BME280_pressure;Samples;Min_cycle;Max_cycle;Signal;HPM_P1;HPM_P2
2024/01/29 00:03:09;;;;;;;33.70;19.93;;;2.30;1.00;;;;;;10395069;28;20549;-83
2024/01/29 00:08:31;;;;;;;33.47;19.53;;;2.30;99.90;;;;;;10354944;28;20198;-83
2024/01/29 00:13:52;;;;;;;26.40;15.87;;;2.40;1.00;;;;;;10341109;28;20294;-83
2024/01/29 00:19:14;;;;;;;27.50;16.50;;;2.40;1.00;;;;;;10286892;28;20223;-83
2024/01/29 00:24:35;;;;;;;26.63;17.10;;;2.50;99.90;;;;;;10362492;28;20413;-83
2024/01/29 00:29:58;;;;;;;35.40;16.70;;;2.40;99.90;;;;;;10506459;28;20533;-83
2024/01/29 00:35:19;;;;;;;31.33;15.90;;;2.30;99.90;;;;;;10363564;28;20229;-83
2024/01/29 00:40:43;;;;;;;33.00;15.57;;;2.40;1.00;;;;;;10364415;28;20212;-83
2024/01/29 00:46:05;;;;;;;31.70;16.07;;;2.30;1.00;;;;;;10410584;28;20205;-83
2024/01/29 00:51:28;;;;;;;25.17;14.73;;;2.30;5.10;;;;;;10379254;28;20460;-83
2024/01/29 00:56:52;;;;;;;31.17;16.67;;;2.30;1.00;;;;;;10363986;28;20516;-82
2024/01/29 01:02:14;;;;;;;32.77;17.20;;;2.30;1.00;;;;;;10293239;28;20236;-83
2024/01/29 01:07:38;;;;;;;33.33;19.40;;;2.30;1.00;;;;;;10396141;28;20225;-82
2024/01/29 01:13:04;;;;;;;30.40;19.37;;;2.30;1.00;;;;;;10326874;28;20278;-82
2024/01/29 01:18:28;;;;;;;33.43;18.00;;;2.30;94.20;;;;;;10352715;28;20307;-83
2024/01/29 01:23:49;;;;;;;34.10;19.60;;;2.20;1.00;;;;;;10361291;28;20233;-83
2024/01/29 01:29:11;;;;;;;30.43;19.47;;;2.10;1.00;;;;;;10503714;28;20208;-84
2024/01/29 01:34:32;;;;;;;26.43;16.30;;;2.10;1.00;;;;;;10355014;28;20252;-84
2024/01/29 01:39:56;;;;;;;33.47;16.37;;;2.20;99.20;;;;;;10394277;28;20202;-82
2024/01/29 01:45:20;;;;;;;29.77;17.37;;;2.30;1.00;;;;;;10362462;28;20273;-82
2024/01/29 01:50:41;;;;;;;32.23;17.53;;;2.20;76.00;;;;;;10324704;28;20201;-82
2024/01/29 01:56:07;;;;;;;31.93;18.63;;;2.20;1.00;;;;;;10374578;28;20200;-82
2024/01/29 02:01:32;;;;;;;31.70;18.00;;;2.20;99.90;;;;;;10371943;28;20218;-81
2024/01/29 02:06:58;;;;;;;39.47;19.00;;;2.20;99.90;;;;;;10324629;28;20289;-82
2024/01/29 02:12:25;;;;;;;31.47;18.00;;;2.20;99.90;;;;;;10406594;28;20293;-80
2024/01/29 02:17:47;;;;;;;34.20;18.40;;;2.20;99.90;;;;;;10353230;28;20421;-82
2024/01/29 02:23:10;;;;;;;32.57;18.90;;;2.20;99.90;;;;;;10350129;28;20300;-81
2024/01/29 02:28:32;;;;;;;35.93;20.27;;;2.10;99.90;;;;;;10501113;28;20411;-81
2024/01/29 02:33:53;;;;;;;35.97;20.57;;;2.10;99.90;;;;;;10373736;28;20206;-81
2024/01/29 02:39:15;;;;;;;34.33;19.47;;;2.20;1.00;;;;;;10389005;28;20214;-83
2024/01/29 02:44:36;;;;;;;35.83;21.07;;;2.20;1.00;;;;;;10358642;28;20310;-83
2024/01/29 02:49:58;;;;;;;34.03;20.33;;;2.20;1.00;;;;;;10345051;28;20198;-83
2024/01/29 02:55:19;;;;;;;32.50;18.93;;;2.20;1.00;;;;;;10287953;28;20646;-82
2024/01/29 03:00:41;;;;;;;34.73;19.93;;;2.20;99.90;;;;;;10295855;28;20198;-82
2024/01/29 03:06:02;;;;;;;37.87;19.87;;;2.00;67.40;;;;;;10376240;28;20244;-82
2024/01/29 03:11:24;;;;;;;33.90;20.40;;;2.00;99.90;;;;;;10376943;28;20198;-83
2024/01/29 03:16:45;;;;;;;36.77;20.10;;;2.00;99.90;;;;;;10399281;28;20210;-83
2024/01/29 03:22:06;;;;;;;33.40;18.97;;;2.10;99.90;;;;;;10287111;28;20251;-84
2024/01/29 03:27:28;;;;;;;35.23;19.90;;;2.20;99.90;;;;;;10460558;28;20211;-83
2024/01/29 03:32:49;;;;;;;35.63;17.63;;;2.20;1.00;;;;;;10350180;28;20631;-82
2024/01/29 03:38:12;;;;;;;39.63;22.10;;;2.20;1.00;;;;;;10341059;28;20249;-84
2024/01/29 03:43:33;;;;;;;34.80;19.47;;;2.20;1.00;;;;;;10374210;28;20265;-83
2024/01/29 03:48:55;;;;;;;34.23;18.60;;;2.20;99.90;;;;;;10327069;28;20393;-84
2024/01/29 03:54:16;;;;;;;35.60;18.80;;;2.00;68.10;;;;;;10378264;28;20202;-82
2024/01/29 03:59:39;;;;;;;33.13;20.47;;;2.00;1.00;;;;;;10271649;28;20204;-83
2024/01/29 04:05:00;;;;;;;39.03;20.17;;;1.90;1.00;;;;;;10370713;28;20298;-82
2024/01/29 04:10:22;;;;;;;38.60;18.27;;;1.90;1.00;;;;;;10497650;28;20211;-83
2024/01/29 04:15:45;;;;;;;34.17;20.37;;;1.80;99.90;;;;;;10402381;28;20346;-81
2024/01/29 04:21:07;;;;;;;37.57;23.00;;;1.80;1.00;;;;;;10356526;28;20237;-83
2024/01/29 04:26:30;;;;;;;40.67;23.57;;;1.70;1.00;;;;;;10491820;28;20207;-84
2024/01/29 04:31:53;;;;;;;35.83;22.37;;;1.70;99.90;;;;;;10324912;28;20199;-82
2024/01/29 04:37:18;;;;;;;36.27;20.00;;;1.50;99.90;;;;;;10368346;28;20234;-84
2024/01/29 04:42:39;;;;;;;38.80;24.03;;;1.50;1.00;;;;;;10291961;28;20307;-81
2024/01/29 04:48:01;;;;;;;44.67;25.60;;;1.50;1.00;;;;;;10295092;28;20194;-81
2024/01/29 04:53:23;;;;;;;43.60;25.43;;;1.50;99.90;;;;;;10294885;28;20363;-82
2024/01/29 04:58:45;;;;;;;38.97;23.77;;;1.40;1.00;;;;;;10307301;28;20277;-82
2024/01/29 05:04:07;;;;;;;40.93;24.40;;;1.30;1.00;;;;;;10321834;28;20225;-82
2024/01/29 05:09:29;;;;;;;52.30;27.97;;;1.30;99.90;;;;;;10378001;28;20199;-82
2024/01/29 05:14:50;;;;;;;42.70;26.00;;;1.30;1.00;;;;;;10379332;28;20426;-81
2024/01/29 05:20:11;;;;;;;48.23;25.67;;;1.30;1.00;;;;;;10325724;28;20248;-82
2024/01/29 05:25:33;;;;;;;81.90;40.50;;;1.20;99.90;;;;;;10399385;28;20222;-81
2024/01/29 05:30:56;;;;;;;152.03;64.80;;;1.30;1.00;;;;;;10381535;28;20211;-84
2024/01/29 05:36:17;;;;;;;156.40;71.37;;;1.30;1.00;;;;;;10341717;28;20229;-82
2024/01/29 05:41:38;;;;;;;200.40;82.20;;;1.30;1.00;;;;;;10342601;28;20238;-84
2024/01/29 05:47:00;;;;;;;252.37;98.20;;;1.20;1.00;;;;;;10282946;28;20232;-87
2024/01/29 05:52:21;;;;;;;69.43;35.90;;;1.10;99.90;;;;;;10285407;28;20239;-82
2024/01/29 05:57:43;;;;;;;157.43;63.80;;;1.20;99.90;;;;;;10352111;28;20206;-84
2024/01/29 06:03:04;;;;;;;133.53;56.53;;;1.20;99.90;;;;;;10353445;28;20234;-83
2024/01/29 06:08:25;;;;;;;191.30;72.03;;;1.20;29.70;;;;;;10382504;28;20191;-82
2024/01/29 06:13:47;;;;;;;91.37;41.80;;;1.20;1.00;;;;;;10481208;28;20269;-82
2024/01/29 06:19:09;;;;;;;105.53;48.30;;;1.20;1.00;;;;;;10334398;28;20301;-83
2024/01/29 06:24:31;;;;;;;54.23;27.87;;;1.20;1.00;;;;;;10396300;28;20222;-84
2024/01/29 06:29:53;;;;;;;75.77;32.83;;;1.20;1.00;;;;;;10391583;28;20256;-83
2024/01/29 06:35:15;;;;;;;87.43;38.10;;;1.30;95.80;;;;;;10378664;28;20527;-82
2024/01/29 06:40:36;;;;;;;56.87;25.73;;;1.30;1.00;;;;;;10278281;28;20209;-82
2024/01/29 06:45:57;;;;;;;69.50;31.07;;;1.30;1.00;;;;;;10335373;28;20231;-84
2024/01/29 06:51:20;;;;;;;91.73;43.93;;;1.30;99.90;;;;;;10365170;28;20277;-81
2024/01/29 06:56:41;;;;;;;95.97;47.67;;;1.30;99.90;;;;;;10283016;28;20205;-83
2024/01/29 07:02:05;;;;;;;92.87;44.73;;;1.40;99.90;;;;;;10368453;28;20281;-82
2024/01/29 07:07:27;;;;;;;90.97;43.03;;;1.40;99.90;;;;;;10270533;28;20437;-82
2024/01/29 07:12:48;;;;;;;69.97;36.03;;;1.50;82.70;;;;;;10304551;28;20234;-81
2024/01/29 07:18:10;;;;;;;76.77;38.03;;;1.60;1.00;;;;;;10340481;28;20277;-83
2024/01/29 07:23:31;;;;;;;66.73;33.57;;;1.60;1.00;;;;;;10311148;28;20215;-80
2024/01/29 07:28:52;;;;;;;55.83;29.37;;;1.60;1.00;;;;;;10402209;28;20516;-83
2024/01/29 07:34:14;;;;;;;78.43;38.00;;;1.70;1.00;;;;;;10373698;28;20206;-82
2024/01/29 07:39:35;;;;;;;58.47;29.60;;;1.80;99.90;;;;;;10384026;28;20501;-81
2024/01/29 07:44:56;;;;;;;67.10;32.97;;;2.10;84.40;;;;;;10276736;28;20287;-83
2024/01/29 07:50:20;;;;;;;83.73;39.33;;;2.60;99.90;;;;;;10281582;28;20431;-82
2024/01/29 07:55:42;;;;;;;70.27;35.10;;;3.00;99.90;;;;;;10255551;29;20418;-85
2024/01/29 08:01:03;;;;;;;53.07;26.30;;;3.30;85.80;;;;;;10405353;28;20204;-82
2024/01/29 08:06:24;;;;;;;69.00;29.07;;;3.20;1.00;;;;;;10395398;28;20227;-84
2024/01/29 08:11:48;;;;;;;57.00;24.10;;;3.10;22.90;;;;;;10282476;28;20211;-82
2024/01/29 08:17:12;;;;;;;61.80;27.83;;;3.80;1.00;;;;;;10292997;28;20228;-82
2024/01/29 08:22:34;;;;;;;55.73;29.23;;;4.50;1.00;;;;;;10325941;28;20310;-84
2024/01/29 08:27:56;;;;;;;51.83;26.97;;;4.90;1.00;;;;;;10536320;28;20281;-81
2024/01/29 08:33:18;;;;;;;43.57;21.80;;;5.10;99.90;;;;;;10437002;28;20213;-83
2024/01/29 08:38:41;;;;;;;57.73;25.93;;;5.30;99.90;;;;;;10366397;28;20281;-85
2024/01/29 08:44:04;;;;;;;50.10;22.67;;;5.50;99.90;;;;;;10359881;28;20238;-82
2024/01/29 08:49:25;;;;;;;30.03;16.70;;;6.30;99.90;;;;;;10375048;28;20229;-83
2024/01/29 08:54:47;;;;;;;49.73;23.70;;;7.30;1.00;;;;;;10328965;28;20535;-82
2024/01/29 09:00:11;;;;;;;167.73;47.00;;;8.30;1.00;;;;;;10288770;28;20212;-82
2024/01/29 09:05:32;;;;;;;75.13;32.17;;;9.00;1.00;;;;;;10299840;28;20233;-83
2024/01/29 09:10:54;;;;;;;71.40;34.20;;;9.10;1.00;;;;;;10317328;28;20223;-84
2024/01/29 09:16:15;;;;;;;58.93;26.30;;;8.30;1.00;;;;;;10359459;28;20234;-79
2024/01/29 09:21:36;;;;;;;30.30;16.73;;;7.30;1.00;;;;;;10302204;28;20242;-82
2024/01/29 09:26:58;;;;;;;81.53;27.60;;;6.70;1.00;;;;;;10334637;28;20234;-83
2024/01/29 09:32:19;;;;;;;47.27;21.63;;;6.40;1.00;;;;;;10388494;28;20224;-80
2024/01/29 09:37:41;;;;;;;46.63;24.37;;;6.10;7.60;;;;;;10244679;28;20208;-80
2024/01/29 09:43:08;;;;;;;34.13;16.77;;;5.90;77.70;;;;;;10520322;28;20618;-85
2024/01/29 09:48:31;;;;;;;47.77;22.40;;;5.60;94.10;;;;;;10364493;28;20214;-81
2024/01/29 09:53:55;;;;;;;36.43;19.10;;;5.60;99.90;;;;;;10372381;28;20262;-81
2024/01/29 09:59:16;;;;;;;38.50;18.83;;;5.50;99.90;;;;;;10286328;28;20228;-82
2024/01/29 10:04:37;;;;;;;34.87;17.10;;;5.60;64.30;;;;;;10305628;28;20232;-82
2024/01/29 10:10:01;;;;;;;34.67;18.17;;;5.60;99.90;;;;;;10289320;28;20206;-82
2024/01/29 10:15:22;;;;;;;52.20;25.47;;;5.60;99.90;;;;;;10272755;28;20233;-81
2024/01/29 10:20:44;;;;;;;33.47;16.73;;;5.50;99.90;;;;;;10297411;28;20307;-80
2024/01/29 10:26:05;;;;;;;34.37;17.07;;;5.60;48.40;;;;;;10531016;28;20239;-81
2024/01/29 10:31:26;;;;;;;39.47;18.97;;;5.60;42.80;;;;;;10279087;28;20200;-81
2024/01/29 10:36:48;;;;;;;56.90;29.13;;;5.70;62.80;;;;;;10344337;28;20206;-82
2024/01/29 10:42:12;;;;;;;41.07;19.30;;;5.70;99.90;;;;;;10285548;28;20728;-82
2024/01/29 10:47:40;;;;;;;26.17;15.03;;;5.90;75.20;;;;;;10349894;28;20218;-80
2024/01/29 10:53:03;;;;;;;30.40;14.60;;;6.00;1.00;;;;;;10331185;28;20216;-83
2024/01/29 10:58:24;;;;;;;28.50;15.97;;;6.10;1.00;;;;;;10260321;28;20548;-80
2024/01/29 11:03:46;;;;;;;32.80;16.47;;;6.20;1.00;;;;;;10331131;28;20650;-79
2024/01/29 11:09:12;;;;;;;31.57;16.93;;;6.30;1.00;;;;;;10361408;28;20189;-86
2024/01/29 11:14:34;;;;;;;30.77;16.90;;;6.40;1.00;;;;;;10445323;28;20245;-82
2024/01/29 11:20:02;;;;;;;37.37;19.47;;;6.60;1.00;;;;;;10264238;28;20252;-83
2024/01/29 11:25:29;;;;;;;34.40;16.80;;;6.90;1.00;;;;;;10385634;28;20506;-80
2024/01/29 11:30:50;;;;;;;27.63;14.30;;;7.20;1.00;;;;;;10371326;28;20209;-84
2024/01/29 11:36:12;;;;;;;30.53;16.83;;;7.90;1.00;;;;;;10305023;28;20195;-85
2024/01/29 11:41:37;;;;;;;59.10;31.13;;;8.50;1.00;;;;;;10407185;28;20198;-77
2024/01/29 11:47:08;;;;;;;29.83;16.10;;;8.50;1.00;;;;;;10409477;28;20232;-79
2024/01/29 11:52:30;;;;;;;35.57;16.87;;;8.40;1.00;;;;;;10305468;28;20197;-84
2024/01/29 11:57:53;;;;;;;29.60;16.33;;;8.40;1.00;;;;;;10304636;28;20197;-84
2024/01/29 12:03:16;;;;;;;31.83;17.30;;;8.40;1.00;;;;;;10305728;28;20409;-81
2024/01/29 12:08:46;;;;;;;33.67;16.73;;;8.30;1.00;;;;;;10304569;28;20195;-81
2024/01/29 12:14:08;;;;;;;29.40;16.47;;;8.00;1.00;;;;;;10304243;28;20196;-83
2024/01/29 12:19:31;;;;;;;27.70;16.13;;;7.80;1.00;;;;;;10393753;28;20701;-82
2024/01/29 12:24:53;;;;;;;32.00;16.77;;;7.80;1.00;;;;;;10383248;28;20229;-82
2024/01/29 12:30:14;;;;;;;32.43;17.90;;;7.70;1.00;;;;;;10366207;28;20580;-82
2024/01/29 12:35:37;;;;;;;26.10;15.00;;;7.70;1.00;;;;;;10316971;28;20207;-83
2024/01/29 12:41:01;;;;;;;33.00;15.83;;;7.60;1.00;;;;;;10294206;28;20512;-83
2024/01/29 12:46:22;;;;;;;27.90;16.30;;;7.60;1.00;;;;;;10300557;28;20226;-82
2024/01/29 12:51:47;;;;;;;30.20;16.87;;;7.60;1.00;;;;;;10340261;28;20234;-81
2024/01/29 12:57:09;;;;;;;31.83;17.70;;;7.50;1.00;;;;;;10378922;28;20260;-83
2024/01/29 13:02:31;;;;;;;28.87;17.07;;;7.40;1.00;;;;;;10513673;28;20207;-82
2024/01/29 13:07:52;;;;;;;28.83;15.57;;;7.30;1.00;;;;;;10497833;28;20501;-85
2024/01/29 13:13:15;;;;;;;30.07;16.13;;;7.10;1.00;;;;;;10296558;28;20284;-81
2024/01/29 13:18:36;;;;;;;31.43;16.23;;;7.10;1.00;;;;;;10352499;28;20257;-81
2024/01/29 13:24:00;;;;;;;35.93;18.33;;;7.00;1.00;;;;;;10380769;28;20217;-86
2024/01/29 13:29:22;;;;;;;38.23;19.73;;;6.80;1.00;;;;;;10513584;28;20194;-83
2024/01/29 13:34:43;;;;;;;32.03;17.17;;;6.60;1.00;;;;;;10301311;28;20215;-83
2024/01/29 13:40:07;;;;;;;31.83;17.63;;;6.40;1.00;;;;;;10349848;28;20209;-89
2024/01/29 13:45:29;;;;;;;28.80;17.63;;;6.30;1.00;;;;;;10302239;28;20233;-82
2024/01/29 13:50:51;;;;;;;32.60;16.93;;;6.30;1.00;;;;;;10369544;28;20554;-82
2024/01/29 13:56:12;;;;;;;29.87;16.07;;;6.20;1.00;;;;;;10292761;28;20274;-82
2024/01/29 14:01:33;;;;;;;29.63;16.73;;;6.10;1.00;;;;;;10289413;28;20228;-82
2024/01/29 14:07:00;;;;;;;62.70;29.93;;;6.00;1.00;;;;;;10291268;28;20231;-84
2024/01/29 14:12:24;;;;;;;53.20;27.43;;;6.00;1.00;;;;;;10470076;28;20208;-80
2024/01/29 14:17:45;;;;;;;50.83;23.97;;;5.90;1.00;;;;;;10315572;28;20212;-87
2024/01/29 14:23:08;;;;;;;33.53;19.40;;;5.80;11.00;;;;;;10306376;28;20231;-89
2024/01/29 14:28:31;;;;;;;33.47;19.23;;;5.70;54.00;;;;;;10391532;28;20193;-85
2024/01/29 14:33:52;;;;;;;45.67;22.50;;;5.70;89.40;;;;;;10275764;28;20255;-85
2024/01/29 14:39:18;;;;;;;42.97;25.47;;;5.60;99.90;;;;;;10304657;28;20270;-84
2024/01/29 14:44:40;;;;;;;52.33;27.60;;;5.50;99.90;;;;;;10408487;28;20228;-81
2024/01/29 14:50:01;;;;;;;53.30;33.40;;;5.50;99.90;;;;;;10375005;28;20232;-81
2024/01/29 14:55:22;;;;;;;45.00;28.50;;;5.30;99.90;;;;;;10390421;28;20223;-79
2024/01/29 15:00:45;;;;;;;49.33;31.00;;;5.30;99.90;;;;;;10374593;28;20191;-86
2024/01/29 15:06:09;;;;;;;66.80;37.23;;;5.20;99.90;;;;;;10291430;28;20277;-81
2024/01/29 15:11:33;;;;;;;74.93;36.50;;;5.10;1.00;;;;;;10269710;28;20233;-80
2024/01/29 15:17:01;;;;;;;115.90;49.50;;;4.90;1.00;;;;;;10433908;28;20265;-84
2024/01/29 15:22:22;;;;;;;76.20;37.80;;;4.90;1.00;;;;;;10431012;28;20237;-82
2024/01/29 15:27:44;;;;;;;92.17;49.80;;;4.80;1.00;;;;;;10451511;28;20243;-81
2024/01/29 15:33:05;;;;;;;92.57;49.53;;;4.80;1.00;;;;;;10376429;28;20205;-79
2024/01/29 15:38:27;;;;;;;63.73;34.17;;;4.70;1.00;;;;;;10313030;28;20204;-82
2024/01/29 15:43:48;;;;;;;65.57;34.37;;;4.60;1.00;;;;;;10326690;28;20307;-83
2024/01/29 15:49:10;;;;;;;66.23;35.63;;;4.60;1.00;;;;;;10310312;28;21239;-81
2024/01/29 15:54:35;;;;;;;87.70;46.13;;;4.60;1.00;;;;;;10339278;28;20630;-81
2024/01/29 16:00:00;;;;;;;71.23;35.87;;;4.50;1.00;;;;;;10380177;28;20240;-85
2024/01/29 16:05:21;;;;;;;77.93;41.88;;;4.40;1.00;;;;;;10351721;28;20448;-83
2024/01/29 16:10:43;;;;;;;62.13;33.53;;;4.40;1.00;;;;;;10399905;28;20197;-83
2024/01/29 16:16:05;;;;;;;99.30;52.33;;;4.30;1.00;;;;;;10386376;28;20207;-86
2024/01/29 16:21:31;;;;;;;87.97;44.90;;;4.30;1.00;;;;;;10398849;28;20245;-81
2024/01/29 16:26:52;;;;;;;112.27;56.07;;;4.20;1.00;;;;;;10458802;28;20277;-83
2024/01/29 16:32:16;;;;;;;65.93;33.07;;;4.20;1.00;;;;;;10520608;28;20390;-82
2024/01/29 16:37:37;;;;;;;71.60;36.03;;;4.10;99.90;;;;;;10521175;28;20250;-85
2024/01/29 16:42:59;;;;;;;85.03;42.60;;;4.10;27.90;;;;;;10437776;28;20440;-81
2024/01/29 16:48:21;;;;;;;74.27;41.27;;;4.20;1.00;;;;;;10274163;28;20200;-83
2024/01/29 16:53:45;;;;;;;114.77;57.53;;;4.20;1.00;;;;;;10273790;28;20204;-84
2024/01/29 16:59:07;;;;;;;122.07;58.37;;;4.10;1.00;;;;;;10342953;28;20198;-85
2024/01/29 17:04:34;;;;;;;139.20;66.80;;;4.10;92.80;;;;;;10290108;28;20234;-83
2024/01/29 17:09:56;;;;;;;115.67;57.97;;;4.00;99.90;;;;;;10374446;28;20387;-81
2024/01/29 17:15:17;;;;;;;87.93;45.77;;;3.90;99.90;;;;;;10325241;28;20494;-83
2024/01/29 17:20:39;;;;;;;79.03;42.10;;;3.90;99.90;;;;;;10412502;28;20586;-82
2024/01/29 17:26:00;;;;;;;98.83;46.20;;;3.90;99.90;;;;;;10441636;28;20232;-84
2024/01/29 17:31:22;;;;;;;114.70;53.93;;;3.90;99.90;;;;;;10506490;28;20195;-84
2024/01/29 17:36:43;;;;;;;97.53;44.43;;;3.80;99.90;;;;;;10506916;28;20204;-80
2024/01/29 17:42:05;;;;;;;80.77;43.40;;;3.70;99.90;;;;;;10478662;28;20429;-85
2024/01/29 17:47:27;;;;;;;91.63;46.70;;;3.70;99.90;;;;;;10357187;28;20224;-85
2024/01/29 17:52:50;;;;;;;97.17;49.13;;;3.70;99.90;;;;;;10342818;28;20279;-85
2024/01/29 17:58:11;;;;;;;102.73;51.80;;;3.70;99.90;;;;;;10291388;28;20226;-85
2024/01/29 18:03:33;;;;;;;88.93;44.60;;;3.60;1.00;;;;;;10356227;28;20212;-85
2024/01/29 18:08:54;;;;;;;81.53;42.90;;;3.50;1.00;;;;;;10350740;28;20206;-81
2024/01/29 18:14:16;;;;;;;77.27;40.27;;;3.50;1.00;;;;;;10311423;28;20198;-83
2024/01/29 18:19:38;;;;;;;63.93;33.93;;;3.60;1.00;;;;;;10396351;28;20239;-83
2024/01/29 18:24:59;;;;;;;79.60;41.73;;;3.70;99.90;;;;;;10392326;28;20544;-84
2024/01/29 18:30:20;;;;;;;84.73;42.30;;;3.60;99.90;;;;;;10504796;28;20198;-84
2024/01/29 18:35:41;;;;;;;67.60;35.57;;;3.50;99.90;;;;;;10519076;28;20203;-84
2024/01/29 19:32:43;;;;;;;101.47;54.23;;;3.20;59.30;;;;;;10598115;27;20577;-84
2024/01/29 19:38:07;;;;;;;83.83;41.87;;;3.20;29.30;;;;;;10536827;28;20362;-82
2024/01/29 19:43:28;;;;;;;71.53;34.10;;;3.20;1.00;;;;;;10541046;28;20191;-84
2024/01/29 19:48:50;;;;;;;65.37;33.33;;;3.30;99.90;;;;;;10540503;28;20215;-84
2024/01/29 19:54:11;;;;;;;65.83;34.13;;;3.20;11.90;;;;;;10533008;28;20198;-84
2024/01/29 19:59:33;;;;;;;86.77;44.17;;;3.20;1.00;;;;;;10569672;28;20217;-83
2024/01/29 20:04:54;;;;;;;115.63;57.17;;;3.10;99.90;;;;;;10583186;28;20188;-84
2024/01/29 20:10:16;;;;;;;110.33;53.00;;;3.00;99.90;;;;;;10564489;28;20230;-84
2024/01/29 20:15:37;;;;;;;106.30;50.53;;;3.00;99.90;;;;;;10564206;28;20198;-84
2024/01/29 20:21:00;;;;;;;99.33;46.57;;;3.00;1.00;;;;;;10557372;28;20207;-84
2024/01/29 20:26:23;;;;;;;85.17;43.57;;;2.90;99.90;;;;;;10522016;28;20198;-84
2024/01/29 20:31:45;;;;;;;94.77;46.50;;;2.90;62.00;;;;;;10504598;28;20249;-84
2024/01/29 20:37:07;;;;;;;106.73;48.80;;;2.90;99.90;;;;;;10493887;28;20487;-82
2024/01/29 20:42:29;;;;;;;98.43;47.07;;;2.90;99.90;;;;;;10524026;28;20196;-83
2024/01/29 20:47:50;;;;;;;91.30;44.90;;;3.00;83.80;;;;;;10478946;28;20274;-83
2024/01/29 20:53:13;;;;;;;91.33;45.93;;;3.00;99.90;;;;;;10520950;28;20253;-85
2024/01/29 20:58:36;;;;;;;119.53;56.10;;;3.00;99.90;;;;;;10542355;28;20195;-84
2024/01/29 21:03:59;;;;;;;99.20;48.20;;;3.00;99.90;;;;;;10548432;28;20213;-83
2024/01/29 21:09:20;;;;;;;86.27;42.93;;;2.90;99.90;;;;;;10548415;28;20576;-85
2024/01/29 21:14:42;;;;;;;76.10;39.37;;;2.90;99.90;;;;;;10534214;28;20558;-84
2024/01/29 21:20:05;;;;;;;79.40;39.80;;;2.90;99.90;;;;;;10567503;28;20253;-84
2024/01/29 21:25:26;;;;;;;88.50;43.17;;;2.80;99.90;;;;;;10481836;28;20389;-84
2024/01/29 21:30:48;;;;;;;91.83;44.20;;;2.80;99.90;;;;;;10491168;28;20257;-82
2024/01/29 21:36:09;;;;;;;86.50;43.30;;;2.70;99.90;;;;;;10491448;28;20279;-83
2024/01/29 21:41:33;;;;;;;121.10;52.93;;;2.70;99.90;;;;;;10523654;28;20226;-81
2024/01/29 21:46:58;;;;;;;115.63;50.43;;;2.60;99.90;;;;;;10477847;28;20198;-84
2024/01/29 21:52:22;;;;;;;109.40;49.90;;;2.50;99.90;;;;;;10504464;28;20224;-84
2024/01/29 21:57:43;;;;;;;103.20;47.70;;;2.30;1.00;;;;;;10504165;28;20195;-82
2024/01/29 22:03:05;;;;;;;124.70;52.37;;;2.20;90.00;;;;;;10506780;28;20198;-83
2024/01/29 22:08:29;;;;;;;146.40;63.87;;;2.20;99.90;;;;;;10493329;28;20446;-83
2024/01/29 22:13:50;;;;;;;148.70;65.30;;;2.20;99.90;;;;;;10476052;28;20206;-83
2024/01/29 22:19:12;;;;;;;144.87;65.00;;;2.10;99.90;;;;;;10489455;28;20210;-82
2024/01/29 22:24:33;;;;;;;141.30;63.17;;;2.10;99.90;;;;;;10520070;28;20286;-84
2024/01/29 22:29:54;;;;;;;136.77;58.07;;;2.00;99.90;;;;;;10488581;28;20238;-80
2024/01/29 22:35:15;;;;;;;129.50;55.43;;;2.00;1.00;;;;;;10474831;28;20191;-81
2024/01/29 22:40:37;;;;;;;109.70;50.50;;;1.90;1.00;;;;;;10474563;28;20210;-81
2024/01/29 22:46:01;;;;;;;117.47;53.13;;;1.90;1.00;;;;;;10505245;28;20212;-81
2024/01/29 22:51:24;;;;;;;110.70;51.33;;;1.90;99.90;;;;;;10474541;28;20231;-83
2024/01/29 22:56:45;;;;;;;101.30;50.07;;;1.70;99.90;;;;;;10490728;28;20187;-81
2024/01/29 23:02:07;;;;;;;91.90;45.27;;;1.70;1.00;;;;;;10474245;28;20203;-84
2024/01/29 23:07:28;;;;;;;87.57;41.53;;;1.60;1.00;;;;;;10505258;28;20415;-83
2024/01/29 23:12:49;;;;;;;80.50;40.73;;;1.60;99.90;;;;;;10487860;28;20317;-83
2024/01/29 23:18:11;;;;;;;89.90;41.13;;;1.60;91.00;;;;;;10487942;28;20200;-81
2024/01/29 23:23:32;;;;;;;87.13;41.10;;;1.50;1.00;;;;;;10473707;28;20367;-83
2024/01/29 23:28:54;;;;;;;91.97;43.67;;;1.50;74.70;;;;;;10473325;28;20231;-83
2024/01/29 23:34:15;;;;;;;90.53;44.83;;;1.40;99.90;;;;;;10501267;28;20203;-82
2024/01/29 23:39:37;;;;;;;95.20;44.53;;;;;;;;;;10473655;28;20191;-84
2024/01/29 23:44:58;;;;;;;89.10;43.00;;;1.40;1.00;;;;;;10488022;28;20230;-83
2024/01/29 23:50:19;;;;;;;84.00;42.30;;;1.40;1.00;;;;;;10506684;28;20246;-84
2024/01/29 23:55:41;;;;;;;88.57;43.40;;;1.50;99.90;;;;;;10501173;28;20202;-82
